Terminal Aerodrome Forecast
Issued by NWS

Home | Current Version | Previous Version | Text Only | Print | Product List | Glossary On
Versions: 1 2 3 4 5 6 7 8 9 10 11 12 13 14 15
445
FTPA31 PHFO 240527
TAFHOG
TAF
PHOG 240527Z 2406/2506 04009KT P6SM SCT050 SCT300
     FM242000 04015G21KT P6SM FEW040 SCT060 BKN250
     FM250500 04009KT P6SM SCT035 BKN250
      AMD LTD TO VIS AND WIND 2409/2416=

USA.gov is the U.S. government's official web portal to all federal, state and local government web resources and services.